createdAt,value
2018-12-09T00:01:58.574Z,3.60
2018-12-09T00:04:25.280Z,1.50
2018-12-09T00:06:52.015Z,1.80
2018-12-09T00:09:18.728Z,2.80
2018-12-09T00:11:45.520Z,3.60
2018-12-09T00:14:12.209Z,3.73
2018-12-09T00:16:38.984Z,3.07
2018-12-09T00:19:05.750Z,1.03
2018-12-09T00:21:32.440Z,0.80
2018-12-09T00:23:59.163Z,0.70
2018-12-09T00:26:25.851Z,1.53
2018-12-09T00:28:52.575Z,2.27
2018-12-09T00:31:19.305Z,1.67
2018-12-09T00:33:46.026Z,0.70
2018-12-09T00:36:12.721Z,0.90
2018-12-09T00:38:39.668Z,3.03
2018-12-09T00:41:06.495Z,6.90
2018-12-09T00:43:33.220Z,4.20
2018-12-09T00:45:59.922Z,4.87
2018-12-09T00:48:26.638Z,0.90
2018-12-09T00:50:53.330Z,3.60
2018-12-09T00:53:20.048Z,1.33
2018-12-09T00:55:46.746Z,0.80
2018-12-09T00:58:13.457Z,1.40
2018-12-09T01:00:40.234Z,1.20
2018-12-09T01:03:06.959Z,0.87
2018-12-09T01:05:33.653Z,3.70
2018-12-09T01:08:00.373Z,0.97
2018-12-09T01:10:27.070Z,3.30
2018-12-09T01:12:53.796Z,1.10
2018-12-09T01:15:20.501Z,1.60
2018-12-09T01:17:47.220Z,0.93
2018-12-09T01:20:13.913Z,0.90
2018-12-09T01:22:40.986Z,1.33
2018-12-09T01:25:07.723Z,1.27
2018-12-09T01:27:34.877Z,0.97
2018-12-09T01:30:01.589Z,1.03
2018-12-09T01:32:28.361Z,3.13
2018-12-09T01:34:55.082Z,1.77
2018-12-09T01:37:21.783Z,1.70
2018-12-09T01:39:48.935Z,1.50
2018-12-09T01:42:15.733Z,1.47
2018-12-09T01:44:42.586Z,0.80
2018-12-09T01:47:09.432Z,1.03
2018-12-09T01:49:36.157Z,2.73
2018-12-09T01:52:03.172Z,1.83
2018-12-09T01:54:29.897Z,1.97
2018-12-09T01:56:56.605Z,1.15
2018-12-09T01:59:23.332Z,0.90
2018-12-09T02:01:50.108Z,5.00
2018-12-09T02:04:17.148Z,2.10
2018-12-09T02:06:43.873Z,0.90
2018-12-09T02:09:10.797Z,0.83
2018-12-09T02:11:37.596Z,1.97
2018-12-09T02:14:04.407Z,2.90
2018-12-09T02:16:31.606Z,1.57
2018-12-09T02:19:04.396Z,1.87
2018-12-09T02:21:31.098Z,1.77
2018-12-09T02:23:57.830Z,1.20
2018-12-09T02:26:24.528Z,5.80
2018-12-09T02:28:51.257Z,2.70
2018-12-09T02:31:17.961Z,1.33
2018-12-09T02:33:44.715Z,0.80
2018-12-09T02:36:11.710Z,2.00
2018-12-09T02:38:38.432Z,2.40
2018-12-09T02:41:05.141Z,2.13
2018-12-09T02:43:32.056Z,5.10
2018-12-09T02:45:58.754Z,2.50
2018-12-09T02:48:25.487Z,3.47
2018-12-09T02:50:52.197Z,5.10
2018-12-09T02:53:19.036Z,3.03
2018-12-09T02:55:45.753Z,2.07
2018-12-09T02:58:12.577Z,3.23
2018-12-09T03:00:39.268Z,3.23
2018-12-09T03:03:05.997Z,2.23
2018-12-09T03:05:32.911Z,2.37
2018-12-09T03:07:59.617Z,3.67
2018-12-09T03:10:26.328Z,4.20
2018-12-09T03:12:53.024Z,1.43
2018-12-09T03:15:19.774Z,1.67
2018-12-09T03:17:46.971Z,1.77
2018-12-09T03:20:13.754Z,4.90
2018-12-09T03:22:40.650Z,6.17
2018-12-09T03:25:07.371Z,2.53
2018-12-09T03:27:34.061Z,2.90
2018-12-09T03:30:01.301Z,3.33
2018-12-09T03:32:28.031Z,1.20
2018-12-09T03:34:54.933Z,4.83
2018-12-09T03:37:21.714Z,1.70
2018-12-09T03:39:48.467Z,2.30
2018-12-09T03:42:15.201Z,4.40
2018-12-09T03:44:42.030Z,2.00
2018-12-09T03:47:08.727Z,6.20
2018-12-09T03:49:35.450Z,1.80
2018-12-09T03:52:02.240Z,4.70
2018-12-09T03:54:28.961Z,1.30
2018-12-09T03:56:55.657Z,2.20
2018-12-09T03:59:22.392Z,1.43
2018-12-09T04:01:49.096Z,5.07
2018-12-09T04:04:15.881Z,3.30
2018-12-09T04:06:42.687Z,15.23
2018-12-09T04:09:09.743Z,3.80
2018-12-09T04:11:36.427Z,2.40
2018-12-09T04:14:03.229Z,2.00
2018-12-09T04:16:29.991Z,1.90
2018-12-09T04:18:56.728Z,2.60
2018-12-09T04:21:23.434Z,7.33
2018-12-09T04:23:50.161Z,1.87
2018-12-09T04:26:16.849Z,4.10
2018-12-09T04:28:43.713Z,1.90
2018-12-09T04:31:10.430Z,4.13
2018-12-09T04:33:37.174Z,10.90
2018-12-09T04:36:03.994Z,4.90
2018-12-09T04:38:30.695Z,6.37
2018-12-09T04:40:57.420Z,6.90
2018-12-09T04:43:24.108Z,3.73
2018-12-09T04:45:50.840Z,3.10
2018-12-09T04:48:18.060Z,5.40
2018-12-09T04:50:44.808Z,4.17
2018-12-09T04:53:11.657Z,3.67
2018-12-09T04:55:38.425Z,7.57
2018-12-09T04:58:05.129Z,11.80
2018-12-09T05:00:37.844Z,3.47
2018-12-09T05:03:04.546Z,6.17
2018-12-09T05:05:31.267Z,3.50
2018-12-09T05:07:57.957Z,6.87
2018-12-09T05:10:24.680Z,6.37
2018-12-09T05:12:51.405Z,6.50
2018-12-09T05:15:18.297Z,5.53
2018-12-09T05:17:45.100Z,5.33
2018-12-09T05:20:12.171Z,9.20
2018-12-09T05:22:38.889Z,8.63
2018-12-09T05:25:05.701Z,7.30
2018-12-09T05:27:32.423Z,6.50
2018-12-09T05:29:59.150Z,3.20
2018-12-09T05:32:25.960Z,4.27
2018-12-09T05:34:52.784Z,5.27
2018-12-09T05:37:19.485Z,4.33
2018-12-09T05:39:46.663Z,4.40
2018-12-09T05:42:13.413Z,6.63
2018-12-09T05:44:40.203Z,6.47
2018-12-09T05:47:06.906Z,3.33
2018-12-09T05:49:33.631Z,5.73
2018-12-09T05:52:00.353Z,3.50
2018-12-09T05:54:27.052Z,2.00
2018-12-09T05:56:54.229Z,4.20
2018-12-09T05:59:20.915Z,2.07
2018-12-09T06:01:47.628Z,7.13
2018-12-09T06:04:14.636Z,2.17
2018-12-09T06:06:41.860Z,3.90
2018-12-09T06:09:08.550Z,5.00
2018-12-09T06:11:35.264Z,2.60
2018-12-09T06:14:02.032Z,6.53
2018-12-09T06:16:28.769Z,3.37
2018-12-09T06:18:55.460Z,4.83
2018-12-09T06:21:22.196Z,4.60
2018-12-09T06:23:49.026Z,3.17
2018-12-09T06:26:15.845Z,3.43
2018-12-09T06:28:42.542Z,2.53
2018-12-09T06:31:09.273Z,2.53
2018-12-09T06:33:36.296Z,2.83
2018-12-09T06:36:03.016Z,3.23
2018-12-09T06:38:29.714Z,2.50
2018-12-09T06:40:56.444Z,5.30
2018-12-09T06:43:23.226Z,2.60
2018-12-09T06:45:50.086Z,3.37
2018-12-09T06:48:16.985Z,1.10
2018-12-09T06:50:43.809Z,7.43
2018-12-09T06:53:10.503Z,3.07
2018-12-09T06:55:37.237Z,12.60
2018-12-09T06:58:03.937Z,3.83
2018-12-09T07:00:30.973Z,1.90
2018-12-09T07:02:57.669Z,1.80
2018-12-09T07:05:24.437Z,3.20
2018-12-09T07:07:51.121Z,2.50
2018-12-09T07:10:17.961Z,1.73
2018-12-09T07:12:44.841Z,2.60
2018-12-09T07:15:11.854Z,1.63
2018-12-09T07:17:38.584Z,3.80
2018-12-09T07:20:05.538Z,2.43
2018-12-09T07:22:32.262Z,2.50
2018-12-09T07:24:58.966Z,1.70
2018-12-09T07:27:25.765Z,2.57
2018-12-09T07:29:52.452Z,5.17
2018-12-09T07:32:19.167Z,1.93
2018-12-09T07:34:45.961Z,4.20
2018-12-09T07:37:12.758Z,3.10
2018-12-09T07:39:39.451Z,1.40
2018-12-09T07:42:06.165Z,2.10
2018-12-09T07:44:32.854Z,2.50
2018-12-09T07:46:59.595Z,0.90
2018-12-09T07:49:26.291Z,4.40
2018-12-09T07:51:53.022Z,2.47
2018-12-09T07:54:19.715Z,3.87
2018-12-09T07:56:46.523Z,2.10
2018-12-09T07:59:13.204Z,3.13
2018-12-09T08:01:39.995Z,2.00
2018-12-09T08:04:06.724Z,10.00
2018-12-09T08:06:33.609Z,3.80
2018-12-09T08:09:00.641Z,2.53
2018-12-09T08:11:27.357Z,3.67
2018-12-09T08:13:54.113Z,1.93
2018-12-09T08:16:20.918Z,1.80
2018-12-09T08:18:47.672Z,1.73
2018-12-09T08:21:14.452Z,4.63
2018-12-09T08:23:41.147Z,3.60
2018-12-09T08:26:07.865Z,6.20
2018-12-09T08:28:34.596Z,4.00
2018-12-09T08:31:01.305Z,7.10
2018-12-09T08:33:27.995Z,3.90
2018-12-09T08:35:54.808Z,3.17
2018-12-09T08:38:21.501Z,3.07
2018-12-09T08:40:48.188Z,7.90
2018-12-09T08:43:14.913Z,5.73
2018-12-09T08:45:41.700Z,4.13
2018-12-09T08:48:08.409Z,7.83
2018-12-09T08:50:35.179Z,8.67
2018-12-09T08:53:01.888Z,6.80
2018-12-09T08:55:28.649Z,8.03
2018-12-09T08:57:55.446Z,3.23
2018-12-09T09:00:22.181Z,6.37
2018-12-09T09:02:48.902Z,2.70
2018-12-09T09:05:15.688Z,4.27
2018-12-09T09:07:42.436Z,9.40
2018-12-09T09:10:09.219Z,4.33
2018-12-09T09:12:35.935Z,7.67
2018-12-09T09:15:03.408Z,3.77
2018-12-09T09:17:30.189Z,14.33
2018-12-09T09:19:56.953Z,3.40
2018-12-09T09:22:23.686Z,14.27
2018-12-09T09:24:50.385Z,5.27
2018-12-09T09:27:17.107Z,8.23
2018-12-09T09:29:43.803Z,6.33
2018-12-09T09:32:10.566Z,18.00
2018-12-09T09:34:37.266Z,12.23
2018-12-09T09:37:03.989Z,12.50
2018-12-09T09:39:30.751Z,18.33
2018-12-09T09:41:57.536Z,13.27
2018-12-09T09:44:24.336Z,13.50
2018-12-09T09:46:51.054Z,12.47
2018-12-09T09:49:17.755Z,16.20
2018-12-09T09:51:44.479Z,8.80
2018-12-09T09:54:11.155Z,9.83
2018-12-09T09:56:37.876Z,5.97
2018-12-09T09:59:04.583Z,57.10
2018-12-09T10:01:31.453Z,143.47
2018-12-09T10:03:58.264Z,126.20
2018-12-09T10:06:25.141Z,109.63
2018-12-09T10:08:51.955Z,106.83
2018-12-09T10:11:18.699Z,90.83
2018-12-09T10:13:45.428Z,84.10
2018-12-09T10:16:12.134Z,71.47
2018-12-09T10:18:38.848Z,69.30
2018-12-09T10:21:05.973Z,50.87
2018-12-09T10:23:32.746Z,51.00
2018-12-09T10:25:59.533Z,56.53
2018-12-09T10:28:26.342Z,55.07
2018-12-09T10:30:53.040Z,48.27
2018-12-09T10:33:19.771Z,44.30
2018-12-09T10:35:46.484Z,45.87
2018-12-09T10:38:13.205Z,41.87
2018-12-09T10:40:39.900Z,42.43
2018-12-09T10:43:06.872Z,31.30
2018-12-09T10:45:33.569Z,34.13
2018-12-09T10:48:00.356Z,35.70
2018-12-09T10:50:27.477Z,31.53
2018-12-09T10:52:54.288Z,27.63
2018-12-09T10:55:21.009Z,28.60
2018-12-09T10:57:47.733Z,31.67
2018-12-09T11:00:18.954Z,30.83
2018-12-09T11:02:45.677Z,32.23
2018-12-09T11:05:12.381Z,19.80
2018-12-09T11:07:39.105Z,25.73
2018-12-09T11:10:06.422Z,25.27
2018-12-09T11:12:33.681Z,21.60
2018-12-09T11:15:00.446Z,19.50
2018-12-09T11:17:27.325Z,22.10
2018-12-09T11:19:54.100Z,15.67
2018-12-09T11:22:20.825Z,18.40
2018-12-09T11:24:47.508Z,25.50
2018-12-09T11:27:14.204Z,17.30
2018-12-09T11:29:40.919Z,14.10
2018-12-09T11:32:07.638Z,15.00
2018-12-09T11:34:34.356Z,25.97
2018-12-09T11:37:01.047Z,26.23
2018-12-09T11:39:27.879Z,16.50
2018-12-09T11:41:54.612Z,18.83
2018-12-09T11:44:21.337Z,14.70
2018-12-09T11:46:48.033Z,31.00
2018-12-09T11:49:14.750Z,17.77
2018-12-09T11:51:41.529Z,19.93
2018-12-09T11:54:08.293Z,13.83
2018-12-09T11:56:34.982Z,19.83
2018-12-09T11:59:01.696Z,20.97
2018-12-09T12:01:28.456Z,24.03
2018-12-09T12:03:55.263Z,27.83
2018-12-09T12:06:21.952Z,9.17
2018-12-09T12:08:48.669Z,15.00
2018-12-09T12:11:15.367Z,12.30
2018-12-09T12:13:42.101Z,12.77
2018-12-09T12:16:08.805Z,15.03
2018-12-09T12:18:35.589Z,11.10
2018-12-09T12:21:02.280Z,10.67
2018-12-09T12:23:29.096Z,7.03
2018-12-09T12:25:55.859Z,11.70
2018-12-09T12:28:22.593Z,13.13
2018-12-09T12:30:49.309Z,14.23
2018-12-09T12:33:16.041Z,7.07
2018-12-09T12:35:42.732Z,11.60
2018-12-09T12:38:09.455Z,16.97
2018-12-09T12:40:36.153Z,12.95
2018-12-09T12:43:02.927Z,8.50
2018-12-09T12:45:29.988Z,11.30
2018-12-09T12:47:56.748Z,10.40
2018-12-09T12:50:23.466Z,9.73
2018-12-09T12:52:50.235Z,5.23
2018-12-09T12:55:16.964Z,15.55
2018-12-09T12:57:43.656Z,9.20
2018-12-09T13:00:12.752Z,4.40
2018-12-09T13:02:39.712Z,9.73
2018-12-09T13:05:06.481Z,7.30
2018-12-09T13:07:33.339Z,16.47
2018-12-09T13:10:00.278Z,10.90
2018-12-09T13:12:26.989Z,6.60
2018-12-09T13:14:53.833Z,11.95
2018-12-09T13:17:20.558Z,13.47
2018-12-09T13:19:47.278Z,5.70
2018-12-09T13:22:14.008Z,7.10
2018-12-09T13:24:40.733Z,8.30
2018-12-09T13:27:07.440Z,6.90
2018-12-09T13:32:21.226Z,6.20
2018-12-09T13:34:47.956Z,8.37
2018-12-09T13:37:14.648Z,10.93
2018-12-09T13:39:41.369Z,7.00
2018-12-09T13:42:08.169Z,8.23
2018-12-09T13:44:35.010Z,14.30
2018-12-09T13:47:01.767Z,28.73
2018-12-09T13:49:28.613Z,15.23
2018-12-09T13:51:55.366Z,14.17
2018-12-09T13:54:22.083Z,12.67
2018-12-09T13:56:48.784Z,13.00
2018-12-09T13:59:15.504Z,9.70
2018-12-09T14:01:42.201Z,18.50
2018-12-09T14:04:09.074Z,10.50
2018-12-09T14:06:35.761Z,9.30
2018-12-09T14:09:02.579Z,13.33
2018-12-09T14:11:29.414Z,13.43
2018-12-09T14:13:56.124Z,10.43
2018-12-09T14:16:22.845Z,8.90
2018-12-09T14:18:49.566Z,9.30
2018-12-09T14:21:16.261Z,7.07
2018-12-09T14:23:43.076Z,8.27
2018-12-09T14:26:09.895Z,10.97
2018-12-09T14:28:36.593Z,9.27
2018-12-09T14:31:03.343Z,16.87
2018-12-09T14:33:30.254Z,12.30
2018-12-09T14:35:57.016Z,14.73
2018-12-09T14:38:23.703Z,17.00
2018-12-09T14:40:50.424Z,7.57
2018-12-09T14:43:17.104Z,14.80
2018-12-09T14:45:48.941Z,16.00
2018-12-09T14:48:12.982Z,12.90
2018-12-09T14:50:39.909Z,14.17
2018-12-09T14:53:06.671Z,22.00
2018-12-09T14:55:33.472Z,10.87
2018-12-09T14:58:00.262Z,13.07
2018-12-09T15:00:26.980Z,12.80
2018-12-09T15:02:53.664Z,10.57
2018-12-09T15:05:20.385Z,9.97
2018-12-09T15:07:47.080Z,14.47
2018-12-09T15:10:13.946Z,7.93
2018-12-09T15:12:40.789Z,12.40
2018-12-09T15:15:07.582Z,9.37
2018-12-09T15:17:34.397Z,9.40
2018-12-09T15:20:01.196Z,10.20
2018-12-09T15:22:27.905Z,8.20
2018-12-09T15:24:54.626Z,14.57
2018-12-09T15:27:21.309Z,11.83
2018-12-09T15:29:48.035Z,11.50
2018-12-09T15:32:14.726Z,6.43
2018-12-09T15:34:41.462Z,13.80
2018-12-09T15:37:08.156Z,16.10
2018-12-09T15:39:34.881Z,7.87
2018-12-09T15:42:01.788Z,16.33
2018-12-09T15:44:28.514Z,12.27
2018-12-09T15:46:55.209Z,12.23
2018-12-09T15:49:22.012Z,21.60
2018-12-09T15:51:48.797Z,5.97
2018-12-09T15:54:15.767Z,7.70
2018-12-09T15:56:42.494Z,6.30
2018-12-09T15:59:09.181Z,8.93
2018-12-09T16:01:35.902Z,4.43
2018-12-09T16:04:02.733Z,10.43
2018-12-09T16:06:29.574Z,7.40
2018-12-09T16:08:56.262Z,28.50
2018-12-09T16:11:23.076Z,7.10
2018-12-09T16:13:49.762Z,8.53
2018-12-09T16:16:16.480Z,3.97
2018-12-09T16:18:43.163Z,4.70
2018-12-09T16:21:09.881Z,13.10
2018-12-09T16:23:36.650Z,7.23
2018-12-09T16:26:03.496Z,5.87
2018-12-09T16:28:30.340Z,4.00
2018-12-09T16:30:57.045Z,8.07
2018-12-09T16:33:23.732Z,9.77
2018-12-09T16:35:50.454Z,5.47
2018-12-09T16:38:17.146Z,11.90
2018-12-09T16:40:43.856Z,5.03
2018-12-09T16:43:11.797Z,4.57
2018-12-09T16:45:38.661Z,4.87
2018-12-09T16:48:05.423Z,5.27
2018-12-09T16:50:32.349Z,9.83
2018-12-09T16:52:59.089Z,4.23
2018-12-09T16:55:25.816Z,3.90
2018-12-09T16:57:52.539Z,7.10
2018-12-09T17:00:19.286Z,5.97
2018-12-09T17:02:46.011Z,5.77
2018-12-09T17:05:12.738Z,10.47
2018-12-09T17:07:42.324Z,8.87
2018-12-09T17:10:08.287Z,4.72
2018-12-09T17:12:35.052Z,6.60
2018-12-09T17:15:02.081Z,7.03
2018-12-09T17:17:28.771Z,9.87
2018-12-09T17:19:55.462Z,7.80
2018-12-09T17:22:22.269Z,9.73
2018-12-09T17:24:49.157Z,4.67
2018-12-09T17:27:15.927Z,6.97
2018-12-09T17:29:42.683Z,5.63
2018-12-09T17:32:09.411Z,9.00
2018-12-09T17:34:36.141Z,7.50
2018-12-09T17:37:02.954Z,5.00
2018-12-09T17:39:29.716Z,11.97
2018-12-09T17:41:56.433Z,7.63
2018-12-09T17:44:23.122Z,7.43
2018-12-09T17:46:49.846Z,12.80
2018-12-09T17:49:16.540Z,8.90
2018-12-09T17:51:43.287Z,9.43
2018-12-09T17:54:09.973Z,8.07
2018-12-09T17:56:36.698Z,11.67
2018-12-09T17:59:04.195Z,8.00
2018-12-09T18:01:30.935Z,10.43
2018-12-09T18:03:57.626Z,7.93
2018-12-09T18:06:24.346Z,13.30
2018-12-09T18:08:51.059Z,11.27
2018-12-09T18:11:17.794Z,8.23
2018-12-09T18:13:44.492Z,13.90
2018-12-09T18:16:11.198Z,9.33
2018-12-09T18:18:37.898Z,5.10
2018-12-09T18:21:04.727Z,8.57
2018-12-09T18:23:31.421Z,5.83
2018-12-09T18:25:58.157Z,9.93
2018-12-09T18:28:24.854Z,13.23
2018-12-09T18:30:51.654Z,5.20
2018-12-09T18:33:18.348Z,155.53
2018-12-09T18:35:45.089Z,379.27
2018-12-09T18:38:11.810Z,921.33
2018-12-09T18:40:38.652Z,982.93
2018-12-09T18:43:05.475Z,951.37
2018-12-09T18:45:32.319Z,939.73
2018-12-09T18:47:59.050Z,876.00
2018-12-09T18:50:25.750Z,803.20
2018-12-09T18:52:52.481Z,722.17
2018-12-09T18:55:19.193Z,617.57
2018-12-09T18:57:45.924Z,575.57
2018-12-09T19:00:12.738Z,517.13
2018-12-09T19:02:39.738Z,478.27
2018-12-09T19:05:06.512Z,480.47
2018-12-09T19:07:33.302Z,472.67
2018-12-09T19:10:02.191Z,437.93
2018-12-09T19:12:28.808Z,417.70
2018-12-09T19:14:55.510Z,399.70
2018-12-09T19:17:22.338Z,409.17
2018-12-09T19:19:49.076Z,381.70
2018-12-09T19:22:15.816Z,404.93
2018-12-09T19:24:42.534Z,389.43
2018-12-09T19:27:09.268Z,363.10
2018-12-09T19:29:36.061Z,357.10
2018-12-09T19:32:03.160Z,340.50
2018-12-09T19:34:29.857Z,351.70
2018-12-09T19:36:56.593Z,331.93
2018-12-09T19:39:23.307Z,89.10
2018-12-09T19:41:50.032Z,278.23
2018-12-09T19:44:16.817Z,256.70
2018-12-09T19:46:43.625Z,270.73
2018-12-09T19:49:10.516Z,261.47
2018-12-09T19:51:37.301Z,263.80
2018-12-09T19:54:04.141Z,277.17
2018-12-09T19:56:30.921Z,295.87
2018-12-09T19:58:57.624Z,268.37
2018-12-09T20:01:24.358Z,254.83
2018-12-09T20:03:51.054Z,213.23
2018-12-09T20:06:17.789Z,236.97
2018-12-09T20:08:44.558Z,259.93
2018-12-09T20:11:11.283Z,229.97
2018-12-09T20:13:38.086Z,229.30
2018-12-09T20:16:05.000Z,224.10
2018-12-09T20:18:31.770Z,212.87
2018-12-09T20:20:58.598Z,200.90
2018-12-09T20:23:25.341Z,211.47
2018-12-09T20:25:52.043Z,214.33
2018-12-09T20:28:18.776Z,178.83
2018-12-09T20:30:45.509Z,223.60
2018-12-09T20:33:12.238Z,179.33
2018-12-09T20:35:38.963Z,193.07
2018-12-09T20:38:05.986Z,182.13
2018-12-09T20:40:32.816Z,178.70
2018-12-09T20:42:59.541Z,184.70
2018-12-09T20:45:26.257Z,162.10
2018-12-09T20:47:53.003Z,179.60
2018-12-09T20:50:19.705Z,164.23
2018-12-09T20:52:46.459Z,170.63
2018-12-09T20:55:13.160Z,159.80
2018-12-09T20:57:39.889Z,172.13
2018-12-09T21:00:06.663Z,160.93
2018-12-09T21:02:33.410Z,156.67
2018-12-09T21:05:00.117Z,146.20
2018-12-09T21:07:26.836Z,131.53
2018-12-09T21:09:53.528Z,143.80
2018-12-09T21:12:20.261Z,133.00
2018-12-09T21:14:46.960Z,128.63
2018-12-09T21:17:13.701Z,142.00
2018-12-09T21:19:40.406Z,130.80
2018-12-09T21:22:07.217Z,124.83
2018-12-09T21:24:33.953Z,140.40
2018-12-09T21:27:00.680Z,138.60
2018-12-09T21:29:27.377Z,123.47
2018-12-09T21:31:54.114Z,140.13
2018-12-09T21:34:20.819Z,126.20
2018-12-09T21:36:47.556Z,113.47
2018-12-09T21:39:14.260Z,117.77
2018-12-09T21:41:41.026Z,125.90
2018-12-09T21:44:07.912Z,103.97
2018-12-09T21:46:34.714Z,121.67
2018-12-09T21:49:01.446Z,96.40
2018-12-09T21:51:28.234Z,120.43
2018-12-09T21:53:54.952Z,98.13
2018-12-09T21:56:21.663Z,105.80
2018-12-09T21:58:48.400Z,105.43
2018-12-09T22:01:15.169Z,91.13
2018-12-09T22:03:41.905Z,93.20
2018-12-09T22:06:08.653Z,92.50
2018-12-09T22:08:35.490Z,94.97
2018-12-09T22:11:02.188Z,89.97
2018-12-09T22:13:29.005Z,97.63
2018-12-09T22:15:55.719Z,111.03
2018-12-09T22:18:22.451Z,89.73
2018-12-09T22:20:49.144Z,82.10
2018-12-09T22:23:15.983Z,85.60
2018-12-09T22:25:42.824Z,84.20
2018-12-09T22:28:09.617Z,74.90
2018-12-09T22:30:36.541Z,68.57
2018-12-09T22:33:03.304Z,77.07
2018-12-09T22:35:30.001Z,70.37
2018-12-09T22:37:56.724Z,74.13
2018-12-09T22:40:23.545Z,72.00
2018-12-09T22:42:50.275Z,61.80
2018-12-09T22:45:17.010Z,70.07
2018-12-09T22:47:43.733Z,64.60
2018-12-09T22:50:10.496Z,65.67
2018-12-09T22:52:37.428Z,61.37
2018-12-09T22:55:04.643Z,50.60
2018-12-09T22:57:31.365Z,63.57
2018-12-09T22:59:58.051Z,60.30
2018-12-09T23:02:30.433Z,48.13
2018-12-09T23:04:57.162Z,54.03
2018-12-09T23:07:29.637Z,54.20
2018-12-09T23:09:56.328Z,56.43
2018-12-09T23:12:23.059Z,55.23
2018-12-09T23:14:49.763Z,51.33
2018-12-09T23:17:16.636Z,41.80
2018-12-09T23:19:43.438Z,41.30
2018-12-09T23:22:10.173Z,47.60
2018-12-09T23:24:37.119Z,45.90
2018-12-09T23:27:03.896Z,37.90
2018-12-09T23:29:30.625Z,43.33
2018-12-09T23:31:57.321Z,36.90
2018-12-09T23:34:24.043Z,42.27
2018-12-09T23:36:50.744Z,37.23
2018-12-09T23:39:17.561Z,35.60
2018-12-09T23:41:44.256Z,39.23
2018-12-09T23:44:11.224Z,29.57
2018-12-09T23:46:38.008Z,32.43
2018-12-09T23:49:04.972Z,28.47
2018-12-09T23:51:31.668Z,27.30
2018-12-09T23:53:58.400Z,32.77
2018-12-09T23:56:25.104Z,38.33
2018-12-09T23:58:51.883Z,34.77
